sensor_id;sensor_type;location;lat;lon;timestamp;temperature;humidity
61912;DHT22;49973;52.084;5.412;2023-02-13T00:01:27;7.70;99.90
61912;DHT22;49973;52.084;5.412;2023-02-13T00:03:55;7.70;99.90
61912;DHT22;49973;52.084;5.412;2023-02-13T00:06:24;7.70;99.90
61912;DHT22;49973;52.084;5.412;2023-02-13T00:08:53;7.70;99.90
61912;DHT22;49973;52.084;5.412;2023-02-13T00:11:21;7.60;99.90
61912;DHT22;49973;52.084;5.412;2023-02-13T00:13:50;7.70;99.90
61912;DHT22;49973;52.084;5.412;2023-02-13T00:16:18;7.70;99.90
61912;DHT22;49973;52.084;5.412;2023-02-13T00:18:48;7.70;99.90
61912;DHT22;49973;52.084;5.412;2023-02-13T00:21:16;7.70;99.90
61912;DHT22;49973;52.084;5.412;2023-02-13T00:23:45;7.70;99.90
61912;DHT22;49973;52.084;5.412;2023-02-13T00:26:15;7.60;99.90
61912;DHT22;49973;52.084;5.412;2023-02-13T00:28:44;7.60;99.90
61912;DHT22;49973;52.084;5.412;2023-02-13T00:31:15;7.80;99.90
61912;DHT22;49973;52.084;5.412;2023-02-13T00:33:44;7.60;99.90
61912;DHT22;49973;52.084;5.412;2023-02-13T00:36:15;7.60;99.90
61912;DHT22;49973;52.084;5.412;2023-02-13T00:38:45;7.60;99.90
61912;DHT22;49973;52.084;5.412;2023-02-13T00:41:14;7.60;99.90
61912;DHT22;49973;52.084;5.412;2023-02-13T00:43:44;7.60;99.90
61912;DHT22;49973;52.084;5.412;2023-02-13T00:46:12;7.60;99.90
61912;DHT22;49973;52.084;5.412;2023-02-13T00:48:41;7.70;99.90
61912;DHT22;49973;52.084;5.412;2023-02-13T00:51:10;7.60;99.90
61912;DHT22;49973;52.084;5.412;2023-02-13T00:53:40;7.60;99.90
61912;DHT22;49973;52.084;5.412;2023-02-13T00:56:09;7.70;99.90
61912;DHT22;49973;52.084;5.412;2023-02-13T00:58:37;7.60;99.90
61912;DHT22;49973;52.084;5.412;2023-02-13T01:01:06;7.60;99.90
61912;DHT22;49973;52.084;5.412;2023-02-13T01:03:34;7.60;99.90
61912;DHT22;49973;52.084;5.412;2023-02-13T01:06:04;7.60;99.90
61912;DHT22;49973;52.084;5.412;2023-02-13T01:08:33;7.60;99.90
61912;DHT22;49973;52.084;5.412;2023-02-13T01:11:04;7.60;99.90
61912;DHT22;49973;52.084;5.412;2023-02-13T01:13:32;7.60;99.90
61912;DHT22;49973;52.084;5.412;2023-02-13T01:16:01;7.50;99.90
61912;DHT22;49973;52.084;5.412;2023-02-13T01:18:30;7.60;99.90
61912;DHT22;49973;52.084;5.412;2023-02-13T01:21:01;7.60;99.90
61912;DHT22;49973;52.084;5.412;2023-02-13T01:23:32;7.50;99.90
61912;DHT22;49973;52.084;5.412;2023-02-13T01:26:05;7.60;99.90
61912;DHT22;49973;52.084;5.412;2023-02-13T01:28:33;7.50;99.90
61912;DHT22;49973;52.084;5.412;2023-02-13T01:31:04;7.50;99.90
61912;DHT22;49973;52.084;5.412;2023-02-13T01:33:33;7.50;99.90
61912;DHT22;49973;52.084;5.412;2023-02-13T01:36:05;7.50;99.90
61912;DHT22;49973;52.084;5.412;2023-02-13T01:38:36;7.50;99.90
61912;DHT22;49973;52.084;5.412;2023-02-13T01:41:07;7.50;99.90
61912;DHT22;49973;52.084;5.412;2023-02-13T01:43:48;7.50;99.90
61912;DHT22;49973;52.084;5.412;2023-02-13T01:46:23;7.50;99.90
61912;DHT22;49973;52.084;5.412;2023-02-13T01:48:56;7.50;99.90
61912;DHT22;49973;52.084;5.412;2023-02-13T01:51:30;7.50;99.90
61912;DHT22;49973;52.084;5.412;2023-02-13T01:54:03;7.50;99.90
61912;DHT22;49973;52.084;5.412;2023-02-13T01:56:36;7.50;99.90
61912;DHT22;49973;52.084;5.412;2023-02-13T01:59:12;7.50;99.90
61912;DHT22;49973;52.084;5.412;2023-02-13T02:01:43;7.40;99.90
61912;DHT22;49973;52.084;5.412;2023-02-13T02:04:14;7.40;99.90
61912;DHT22;49973;52.084;5.412;2023-02-13T02:06:48;7.50;99.90
61912;DHT22;49973;52.084;5.412;2023-02-13T02:09:27;7.40;99.90
61912;DHT22;49973;52.084;5.412;2023-02-13T02:12:01;7.40;99.90
61912;DHT22;49973;52.084;5.412;2023-02-13T02:14:34;7.40;99.90
61912;DHT22;49973;52.084;5.412;2023-02-13T02:17:05;7.40;99.90
61912;DHT22;49973;52.084;5.412;2023-02-13T02:19:38;7.40;99.90
61912;DHT22;49973;52.084;5.412;2023-02-13T02:25:44;7.40;99.90
61912;DHT22;49973;52.084;5.412;2023-02-13T02:28:30;7.50;99.90
61912;DHT22;49973;52.084;5.412;2023-02-13T02:31:47;7.40;99.90
61912;DHT22;49973;52.084;5.412;2023-02-13T02:34:27;7.50;99.90
61912;DHT22;49973;52.084;5.412;2023-02-13T02:37:07;7.40;99.90
61912;DHT22;49973;52.084;5.412;2023-02-13T02:39:45;7.50;99.90
61912;DHT22;49973;52.084;5.412;2023-02-13T02:42:24;7.40;99.90
61912;DHT22;49973;52.084;5.412;2023-02-13T02:44:59;7.40;99.90
61912;DHT22;49973;52.084;5.412;2023-02-13T02:47:39;7.50;99.90
61912;DHT22;49973;52.084;5.412;2023-02-13T02:50:33;7.50;99.90
61912;DHT22;49973;52.084;5.412;2023-02-13T02:53:13;7.50;99.90
61912;DHT22;49973;52.084;5.412;2023-02-13T02:55:47;7.50;99.90
61912;DHT22;49973;52.084;5.412;2023-02-13T02:58:21;7.50;99.90
61912;DHT22;49973;52.084;5.412;2023-02-13T03:01:14;7.50;99.90
61912;DHT22;49973;52.084;5.412;2023-02-13T03:04:03;7.50;99.90
61912;DHT22;49973;52.084;5.412;2023-02-13T03:06:53;7.50;99.90
61912;DHT22;49973;52.084;5.412;2023-02-13T03:09:28;7.50;99.90
61912;DHT22;49973;52.084;5.412;2023-02-13T03:12:19;7.50;99.90
61912;DHT22;49973;52.084;5.412;2023-02-13T03:15:07;7.40;99.90
61912;DHT22;49973;52.084;5.412;2023-02-13T03:17:36;7.50;99.90
61912;DHT22;49973;52.084;5.412;2023-02-13T03:20:34;7.50;99.90
61912;DHT22;49973;52.084;5.412;2023-02-13T03:23:25;7.50;99.90
61912;DHT22;49973;52.084;5.412;2023-02-13T03:26:11;7.40;99.90
61912;DHT22;49973;52.084;5.412;2023-02-13T03:28:47;7.60;99.90
61912;DHT22;49973;52.084;5.412;2023-02-13T03:31:41;7.50;99.90
61912;DHT22;49973;52.084;5.412;2023-02-13T03:34:14;7.50;99.90
61912;DHT22;49973;52.084;5.412;2023-02-13T03:36:50;7.50;99.90
61912;DHT22;49973;52.084;5.412;2023-02-13T03:39:47;7.50;99.90
61912;DHT22;49973;52.084;5.412;2023-02-13T03:42:20;7.50;99.90
61912;DHT22;49973;52.084;5.412;2023-02-13T03:44:55;7.50;99.90
61912;DHT22;49973;52.084;5.412;2023-02-13T03:47:39;7.50;99.90
61912;DHT22;49973;52.084;5.412;2023-02-13T03:50:09;7.50;99.90
61912;DHT22;49973;52.084;5.412;2023-02-13T03:52:43;7.50;99.90
61912;DHT22;49973;52.084;5.412;2023-02-13T03:55:15;7.50;99.90
61912;DHT22;49973;52.084;5.412;2023-02-13T03:58:04;7.50;99.90
61912;DHT22;49973;52.084;5.412;2023-02-13T04:00:56;7.50;99.90
61912;DHT22;49973;52.084;5.412;2023-02-13T04:03:29;7.50;99.90
61912;DHT22;49973;52.084;5.412;2023-02-13T04:06:02;7.50;99.90
61912;DHT22;49973;52.084;5.412;2023-02-13T04:08:33;7.50;99.90
61912;DHT22;49973;52.084;5.412;2023-02-13T04:11:07;7.50;99.90
61912;DHT22;49973;52.084;5.412;2023-02-13T04:13:41;7.50;99.90
61912;DHT22;49973;52.084;5.412;2023-02-13T04:16:15;7.50;99.90
61912;DHT22;49973;52.084;5.412;2023-02-13T04:18:46;7.50;99.90
61912;DHT22;49973;52.084;5.412;2023-02-13T04:21:15;7.50;99.90
61912;DHT22;49973;52.084;5.412;2023-02-13T04:23:45;7.50;99.90
61912;DHT22;49973;52.084;5.412;2023-02-13T04:26:16;7.50;99.90
61912;DHT22;49973;52.084;5.412;2023-02-13T04:28:45;7.50;99.90
61912;DHT22;49973;52.084;5.412;2023-02-13T04:31:14;7.50;99.90
61912;DHT22;49973;52.084;5.412;2023-02-13T04:33:42;7.50;99.90
61912;DHT22;49973;52.084;5.412;2023-02-13T04:36:11;7.50;99.90
61912;DHT22;49973;52.084;5.412;2023-02-13T04:38:39;7.50;99.90
61912;DHT22;49973;52.084;5.412;2023-02-13T04:41:09;7.60;99.90
61912;DHT22;49973;52.084;5.412;2023-02-13T04:43:38;7.50;99.90
61912;DHT22;49973;52.084;5.412;2023-02-13T04:46:06;7.50;99.90
61912;DHT22;49973;52.084;5.412;2023-02-13T04:48:35;7.40;99.90
61912;DHT22;49973;52.084;5.412;2023-02-13T04:51:05;7.50;99.90
61912;DHT22;49973;52.084;5.412;2023-02-13T04:53:33;7.40;99.90
61912;DHT22;49973;52.084;5.412;2023-02-13T04:56:02;7.40;99.90
61912;DHT22;49973;52.084;5.412;2023-02-13T04:58:32;7.40;99.90
61912;DHT22;49973;52.084;5.412;2023-02-13T05:01:01;7.40;99.90
61912;DHT22;49973;52.084;5.412;2023-02-13T05:03:29;7.40;99.90
61912;DHT22;49973;52.084;5.412;2023-02-13T05:05:58;7.30;99.90
61912;DHT22;49973;52.084;5.412;2023-02-13T05:08:26;7.40;99.90
61912;DHT22;49973;52.084;5.412;2023-02-13T05:10:55;7.40;99.90
61912;DHT22;49973;52.084;5.412;2023-02-13T05:13:24;7.50;99.90
61912;DHT22;49973;52.084;5.412;2023-02-13T05:15:53;7.40;99.90
61912;DHT22;49973;52.084;5.412;2023-02-13T05:18:22;7.40;99.90
61912;DHT22;49973;52.084;5.412;2023-02-13T05:20:51;7.40;99.90
61912;DHT22;49973;52.084;5.412;2023-02-13T05:23:33;7.40;99.90
61912;DHT22;49973;52.084;5.412;2023-02-13T05:26:02;7.40;99.90
61912;DHT22;49973;52.084;5.412;2023-02-13T05:28:30;7.40;99.90
61912;DHT22;49973;52.084;5.412;2023-02-13T05:31:18;7.50;99.90
61912;DHT22;49973;52.084;5.412;2023-02-13T05:33:46;7.40;99.90
61912;DHT22;49973;52.084;5.412;2023-02-13T05:36:15;7.40;99.90
61912;DHT22;49973;52.084;5.412;2023-02-13T05:38:43;7.40;99.90
61912;DHT22;49973;52.084;5.412;2023-02-13T05:41:12;7.30;99.90
61912;DHT22;49973;52.084;5.412;2023-02-13T05:43:40;7.40;99.90
61912;DHT22;49973;52.084;5.412;2023-02-13T05:46:09;7.40;99.90
61912;DHT22;49973;52.084;5.412;2023-02-13T05:48:39;7.40;99.90
61912;DHT22;49973;52.084;5.412;2023-02-13T05:51:08;7.50;99.90
61912;DHT22;49973;52.084;5.412;2023-02-13T05:53:36;7.40;99.90
61912;DHT22;49973;52.084;5.412;2023-02-13T05:56:05;7.50;99.90
61912;DHT22;49973;52.084;5.412;2023-02-13T05:58:34;7.40;99.90
61912;DHT22;49973;52.084;5.412;2023-02-13T06:01:03;7.40;99.90
61912;DHT22;49973;52.084;5.412;2023-02-13T06:03:32;7.40;99.90
61912;DHT22;49973;52.084;5.412;2023-02-13T06:06:02;7.50;99.90
61912;DHT22;49973;52.084;5.412;2023-02-13T06:08:30;7.50;99.90
61912;DHT22;49973;52.084;5.412;2023-02-13T06:10:59;7.50;99.90
61912;DHT22;49973;52.084;5.412;2023-02-13T06:13:28;7.50;99.90
61912;DHT22;49973;52.084;5.412;2023-02-13T06:15:57;7.50;99.90
61912;DHT22;49973;52.084;5.412;2023-02-13T06:18:25;7.50;99.90
61912;DHT22;49973;52.084;5.412;2023-02-13T06:20:54;7.50;99.90
61912;DHT22;49973;52.084;5.412;2023-02-13T06:23:24;7.50;99.90
61912;DHT22;49973;52.084;5.412;2023-02-13T06:25:52;7.50;99.90
61912;DHT22;49973;52.084;5.412;2023-02-13T06:28:21;7.50;99.90
61912;DHT22;49973;52.084;5.412;2023-02-13T06:30:49;7.60;99.90
61912;DHT22;49973;52.084;5.412;2023-02-13T06:33:18;7.60;99.90
61912;DHT22;49973;52.084;5.412;2023-02-13T06:35:46;7.60;99.90
61912;DHT22;49973;52.084;5.412;2023-02-13T06:38:15;7.60;99.90
61912;DHT22;49973;52.084;5.412;2023-02-13T06:40:46;7.60;99.90
61912;DHT22;49973;52.084;5.412;2023-02-13T06:43:16;7.70;99.90
61912;DHT22;49973;52.084;5.412;2023-02-13T06:45:45;7.60;99.90
61912;DHT22;49973;52.084;5.412;2023-02-13T06:48:14;7.70;99.90
61912;DHT22;49973;52.084;5.412;2023-02-13T06:50:42;7.60;99.90
61912;DHT22;49973;52.084;5.412;2023-02-13T06:53:11;7.60;99.90
61912;DHT22;49973;52.084;5.412;2023-02-13T06:55:39;7.60;99.90
61912;DHT22;49973;52.084;5.412;2023-02-13T06:58:09;7.60;99.90
61912;DHT22;49973;52.084;5.412;2023-02-13T07:00:38;7.70;99.90
61912;DHT22;49973;52.084;5.412;2023-02-13T07:03:07;7.60;99.90
61912;DHT22;49973;52.084;5.412;2023-02-13T07:05:38;7.60;99.90
61912;DHT22;49973;52.084;5.412;2023-02-13T07:08:07;7.60;99.90
61912;DHT22;49973;52.084;5.412;2023-02-13T07:10:36;7.60;99.90
61912;DHT22;49973;52.084;5.412;2023-02-13T07:13:05;7.60;99.90
61912;DHT22;49973;52.084;5.412;2023-02-13T07:15:36;7.60;99.90
61912;DHT22;49973;52.084;5.412;2023-02-13T07:18:05;7.60;99.90
61912;DHT22;49973;52.084;5.412;2023-02-13T07:20:34;7.60;99.90
61912;DHT22;49973;52.084;5.412;2023-02-13T07:23:04;7.60;99.90
61912;DHT22;49973;52.084;5.412;2023-02-13T07:25:33;7.60;99.90
61912;DHT22;49973;52.084;5.412;2023-02-13T07:28:03;7.60;99.90
61912;DHT22;49973;52.084;5.412;2023-02-13T07:30:32;7.60;99.90
61912;DHT22;49973;52.084;5.412;2023-02-13T07:33:03;7.60;99.90
61912;DHT22;49973;52.084;5.412;2023-02-13T07:35:32;7.60;99.90
61912;DHT22;49973;52.084;5.412;2023-02-13T07:38:02;7.60;99.90
61912;DHT22;49973;52.084;5.412;2023-02-13T07:40:31;7.60;99.90
61912;DHT22;49973;52.084;5.412;2023-02-13T07:43:00;7.60;99.90
61912;DHT22;49973;52.084;5.412;2023-02-13T07:45:29;7.60;99.90
61912;DHT22;49973;52.084;5.412;2023-02-13T07:47:58;7.60;99.90
61912;DHT22;49973;52.084;5.412;2023-02-13T07:50:28;7.60;99.90
61912;DHT22;49973;52.084;5.412;2023-02-13T07:52:58;7.60;99.90
61912;DHT22;49973;52.084;5.412;2023-02-13T07:55:27;7.70;99.90
61912;DHT22;49973;52.084;5.412;2023-02-13T07:57:56;7.70;99.90
61912;DHT22;49973;52.084;5.412;2023-02-13T08:00:25;7.80;99.90
61912;DHT22;49973;52.084;5.412;2023-02-13T08:02:53;7.80;99.90
61912;DHT22;49973;52.084;5.412;2023-02-13T08:05:22;7.90;99.90
61912;DHT22;49973;52.084;5.412;2023-02-13T08:07:52;7.90;99.90
61912;DHT22;49973;52.084;5.412;2023-02-13T08:10:21;8.00;99.90
61912;DHT22;49973;52.084;5.412;2023-02-13T08:13:08;8.00;99.90
61912;DHT22;49973;52.084;5.412;2023-02-13T08:15:38;8.20;99.90
61912;DHT22;49973;52.084;5.412;2023-02-13T08:18:06;8.40;99.90
61912;DHT22;49973;52.084;5.412;2023-02-13T08:20:35;8.30;99.90
61912;DHT22;49973;52.084;5.412;2023-02-13T08:23:06;8.40;99.90
61912;DHT22;49973;52.084;5.412;2023-02-13T08:25:36;8.50;99.90
61912;DHT22;49973;52.084;5.412;2023-02-13T08:28:05;8.60;99.90
61912;DHT22;49973;52.084;5.412;2023-02-13T08:30:33;8.80;99.90
61912;DHT22;49973;52.084;5.412;2023-02-13T08:33:02;8.80;99.90
61912;DHT22;49973;52.084;5.412;2023-02-13T08:35:31;8.90;99.90
61912;DHT22;49973;52.084;5.412;2023-02-13T08:38:01;9.00;99.90
61912;DHT22;49973;52.084;5.412;2023-02-13T08:40:31;9.10;99.90
61912;DHT22;49973;52.084;5.412;2023-02-13T08:43:00;9.20;99.90
61912;DHT22;49973;52.084;5.412;2023-02-13T08:45:30;9.20;99.90
61912;DHT22;49973;52.084;5.412;2023-02-13T08:47:59;9.30;99.90
61912;DHT22;49973;52.084;5.412;2023-02-13T08:50:30;9.40;99.90
61912;DHT22;49973;52.084;5.412;2023-02-13T08:52:58;9.50;99.90
61912;DHT22;49973;52.084;5.412;2023-02-13T08:55:27;9.60;99.90
61912;DHT22;49973;52.084;5.412;2023-02-13T08:58:01;9.70;99.90
61912;DHT22;49973;52.084;5.412;2023-02-13T09:00:29;9.80;99.90
61912;DHT22;49973;52.084;5.412;2023-02-13T09:03:02;9.80;99.90
61912;DHT22;49973;52.084;5.412;2023-02-13T09:05:31;9.90;99.90
61912;DHT22;49973;52.084;5.412;2023-02-13T09:08:00;10.00;99.90
61912;DHT22;49973;52.084;5.412;2023-02-13T09:10:30;10.10;99.90
61912;DHT22;49973;52.084;5.412;2023-02-13T09:13:00;10.10;99.90
61912;DHT22;49973;52.084;5.412;2023-02-13T09:15:29;10.10;99.90
61912;DHT22;49973;52.084;5.412;2023-02-13T09:17:58;10.20;99.90
61912;DHT22;49973;52.084;5.412;2023-02-13T09:20:27;10.20;99.90
61912;DHT22;49973;52.084;5.412;2023-02-13T09:22:55;10.20;99.90
61912;DHT22;49973;52.084;5.412;2023-02-13T09:25:24;10.30;99.90
61912;DHT22;49973;52.084;5.412;2023-02-13T09:27:53;10.30;99.90
61912;DHT22;49973;52.084;5.412;2023-02-13T09:30:23;10.30;99.90
61912;DHT22;49973;52.084;5.412;2023-02-13T09:32:52;10.20;99.90
61912;DHT22;49973;52.084;5.412;2023-02-13T09:35:22;10.20;99.90
61912;DHT22;49973;52.084;5.412;2023-02-13T09:37:50;10.20;99.90
61912;DHT22;49973;52.084;5.412;2023-02-13T09:40:23;10.10;99.90
61912;DHT22;49973;52.084;5.412;2023-02-13T09:43:00;10.10;99.90
61912;DHT22;49973;52.084;5.412;2023-02-13T09:45:33;10.10;99.90
61912;DHT22;49973;52.084;5.412;2023-02-13T09:48:03;10.10;99.90
61912;DHT22;49973;52.084;5.412;2023-02-13T09:50:33;10.10;99.90
61912;DHT22;49973;52.084;5.412;2023-02-13T09:53:03;10.10;99.90
61912;DHT22;49973;52.084;5.412;2023-02-13T09:55:38;10.10;99.90
61912;DHT22;49973;52.084;5.412;2023-02-13T09:58:18;10.10;99.90
61912;DHT22;49973;52.084;5.412;2023-02-13T10:00:53;10.10;99.90
61912;DHT22;49973;52.084;5.412;2023-02-13T10:03:28;10.10;99.90
61912;DHT22;49973;52.084;5.412;2023-02-13T10:06:05;10.20;99.90
61912;DHT22;49973;52.084;5.412;2023-02-13T10:11:54;10.10;99.90
61912;DHT22;49973;52.084;5.412;2023-02-13T10:14:31;10.10;99.90
61912;DHT22;49973;52.084;5.412;2023-02-13T10:17:08;10.20;99.90
61912;DHT22;49973;52.084;5.412;2023-02-13T10:19:40;10.20;99.90
61912;DHT22;49973;52.084;5.412;2023-02-13T10:22:13;10.20;99.90
61912;DHT22;49973;52.084;5.412;2023-02-13T10:24:46;10.20;99.90
61912;DHT22;49973;52.084;5.412;2023-02-13T10:27:19;10.20;99.90
61912;DHT22;49973;52.084;5.412;2023-02-13T10:29:54;10.30;99.90
61912;DHT22;49973;52.084;5.412;2023-02-13T10:32:42;10.40;99.90
61912;DHT22;49973;52.084;5.412;2023-02-13T10:35:19;10.50;99.90
61912;DHT22;49973;52.084;5.412;2023-02-13T10:37:49;10.50;99.90
61912;DHT22;49973;52.084;5.412;2023-02-13T10:40:19;10.60;99.90
61912;DHT22;49973;52.084;5.412;2023-02-13T10:42:55;10.70;99.90
61912;DHT22;49973;52.084;5.412;2023-02-13T10:45:47;10.80;99.90
61912;DHT22;49973;52.084;5.412;2023-02-13T10:48:38;10.90;99.90
61912;DHT22;49973;52.084;5.412;2023-02-13T10:51:17;10.90;99.90
61912;DHT22;49973;52.084;5.412;2023-02-13T10:53:58;10.90;99.90
61912;DHT22;49973;52.084;5.412;2023-02-13T10:56:33;10.80;99.90
61912;DHT22;49973;52.084;5.412;2023-02-13T10:59:22;10.80;99.90
61912;DHT22;49973;52.084;5.412;2023-02-13T11:01:58;10.80;99.90
61912;DHT22;49973;52.084;5.412;2023-02-13T11:04:29;10.80;99.90
61912;DHT22;49973;52.084;5.412;2023-02-13T11:06:59;10.80;99.90
61912;DHT22;49973;52.084;5.412;2023-02-13T11:09:32;10.80;99.90
61912;DHT22;49973;52.084;5.412;2023-02-13T11:12:22;10.80;99.90
61912;DHT22;49973;52.084;5.412;2023-02-13T11:14:56;10.80;99.90
61912;DHT22;49973;52.084;5.412;2023-02-13T11:17:27;10.80;99.90
61912;DHT22;49973;52.084;5.412;2023-02-13T11:19:58;10.80;99.90
61912;DHT22;49973;52.084;5.412;2023-02-13T11:22:30;10.90;99.90
61912;DHT22;49973;52.084;5.412;2023-02-13T11:25:02;10.90;99.90
61912;DHT22;49973;52.084;5.412;2023-02-13T11:27:33;10.80;99.90
61912;DHT22;49973;52.084;5.412;2023-02-13T11:30:05;10.90;99.90
61912;DHT22;49973;52.084;5.412;2023-02-13T11:32:34;10.80;99.90
61912;DHT22;49973;52.084;5.412;2023-02-13T11:35:26;10.80;99.90
61912;DHT22;49973;52.084;5.412;2023-02-13T11:38:12;10.80;99.90
61912;DHT22;49973;52.084;5.412;2023-02-13T11:40:48;10.80;99.90
61912;DHT22;49973;52.084;5.412;2023-02-13T11:43:20;10.80;99.90
61912;DHT22;49973;52.084;5.412;2023-02-13T11:46:01;10.80;99.90
61912;DHT22;49973;52.084;5.412;2023-02-13T11:48:30;10.90;99.90
61912;DHT22;49973;52.084;5.412;2023-02-13T11:51:00;10.90;99.90
61912;DHT22;49973;52.084;5.412;2023-02-13T11:53:30;10.80;99.90
61912;DHT22;49973;52.084;5.412;2023-02-13T11:56:07;10.90;99.90
61912;DHT22;49973;52.084;5.412;2023-02-13T11:58:36;10.90;99.90
61912;DHT22;49973;52.084;5.412;2023-02-13T12:01:20;10.90;99.90
61912;DHT22;49973;52.084;5.412;2023-02-13T12:04:01;10.90;99.90
61912;DHT22;49973;52.084;5.412;2023-02-13T12:06:33;10.90;99.90
61912;DHT22;49973;52.084;5.412;2023-02-13T12:09:11;10.90;99.90
61912;DHT22;49973;52.084;5.412;2023-02-13T12:11:44;11.00;99.90
61912;DHT22;49973;52.084;5.412;2023-02-13T12:14:17;11.00;99.90
61912;DHT22;49973;52.084;5.412;2023-02-13T12:16:49;11.00;99.90
61912;DHT22;49973;52.084;5.412;2023-02-13T12:19:21;11.00;99.90
61912;DHT22;49973;52.084;5.412;2023-02-13T12:22:04;11.10;99.90
61912;DHT22;49973;52.084;5.412;2023-02-13T12:24:59;11.10;99.90
61912;DHT22;49973;52.084;5.412;2023-02-13T12:27:38;11.10;99.90
61912;DHT22;49973;52.084;5.412;2023-02-13T12:30:26;11.10;99.90
61912;DHT22;49973;52.084;5.412;2023-02-13T12:33:05;11.20;99.90
61912;DHT22;49973;52.084;5.412;2023-02-13T12:35:52;11.20;99.90
61912;DHT22;49973;52.084;5.412;2023-02-13T12:38:34;11.20;99.90
61912;DHT22;49973;52.084;5.412;2023-02-13T12:41:19;11.20;99.90
61912;DHT22;49973;52.084;5.412;2023-02-13T12:44:04;11.20;99.90
61912;DHT22;49973;52.084;5.412;2023-02-13T12:46:39;11.20;99.90
61912;DHT22;49973;52.084;5.412;2023-02-13T12:49:24;11.20;99.90
61912;DHT22;49973;52.084;5.412;2023-02-13T12:52:10;11.30;99.90
61912;DHT22;49973;52.084;5.412;2023-02-13T12:54:52;11.20;99.90
61912;DHT22;49973;52.084;5.412;2023-02-13T12:57:35;11.30;99.90
61912;DHT22;49973;52.084;5.412;2023-02-13T13:00:21;11.30;99.90
61912;DHT22;49973;52.084;5.412;2023-02-13T13:03:04;11.30;99.90
61912;DHT22;49973;52.084;5.412;2023-02-13T13:05:52;11.40;99.90
61912;DHT22;49973;52.084;5.412;2023-02-13T13:09:00;11.40;99.90
61912;DHT22;49973;52.084;5.412;2023-02-13T13:14:28;11.40;99.90
61912;DHT22;49973;52.084;5.412;2023-02-13T13:17:03;11.40;99.90
61912;DHT22;49973;52.084;5.412;2023-02-13T13:19:39;11.40;99.90
61912;DHT22;49973;52.084;5.412;2023-02-13T13:22:12;11.40;99.90
61912;DHT22;49973;52.084;5.412;2023-02-13T13:24:51;11.40;99.90
61912;DHT22;49973;52.084;5.412;2023-02-13T13:27:25;11.40;99.90
61912;DHT22;49973;52.084;5.412;2023-02-13T13:29:57;11.40;99.90
61912;DHT22;49973;52.084;5.412;2023-02-13T13:32:28;11.40;99.90
61912;DHT22;49973;52.084;5.412;2023-02-13T13:34:57;11.40;99.90
61912;DHT22;49973;52.084;5.412;2023-02-13T13:37:31;11.50;99.90
61912;DHT22;49973;52.084;5.412;2023-02-13T13:40:23;11.50;99.90
61912;DHT22;49973;52.084;5.412;2023-02-13T13:42:58;11.50;99.90
61912;DHT22;49973;52.084;5.412;2023-02-13T13:45:35;11.60;99.90
61912;DHT22;49973;52.084;5.412;2023-02-13T13:48:35;11.50;99.90
61912;DHT22;49973;52.084;5.412;2023-02-13T13:51:15;11.50;99.90
61912;DHT22;49973;52.084;5.412;2023-02-13T13:54:19;11.50;99.90
61912;DHT22;49973;52.084;5.412;2023-02-13T13:57:06;11.60;99.90
61912;DHT22;49973;52.084;5.412;2023-02-13T13:59:56;11.60;99.90
61912;DHT22;49973;52.084;5.412;2023-02-13T14:02:35;11.60;99.90
61912;DHT22;49973;52.084;5.412;2023-02-13T14:05:21;11.60;99.90
61912;DHT22;49973;52.084;5.412;2023-02-13T14:07:53;11.60;99.90
61912;DHT22;49973;52.084;5.412;2023-02-13T14:13:37;11.70;99.90
61912;DHT22;49973;52.084;5.412;2023-02-13T14:16:10;11.70;99.90
61912;DHT22;49973;52.084;5.412;2023-02-13T14:18:44;11.70;99.90
61912;DHT22;49973;52.084;5.412;2023-02-13T14:21:22;11.70;99.90
61912;DHT22;49973;52.084;5.412;2023-02-13T14:23:51;11.70;99.90
61912;DHT22;49973;52.084;5.412;2023-02-13T14:26:32;11.70;99.90
61912;DHT22;49973;52.084;5.412;2023-02-13T14:29:20;11.70;99.90
61912;DHT22;49973;52.084;5.412;2023-02-13T14:32:06;11.70;99.90
61912;DHT22;49973;52.084;5.412;2023-02-13T14:34:42;11.70;99.90
61912;DHT22;49973;52.084;5.412;2023-02-13T14:37:20;11.70;99.90
61912;DHT22;49973;52.084;5.412;2023-02-13T14:40:11;11.70;99.90
61912;DHT22;49973;52.084;5.412;2023-02-13T14:42:43;11.70;99.90
61912;DHT22;49973;52.084;5.412;2023-02-13T14:45:16;11.70;99.90
61912;DHT22;49973;52.084;5.412;2023-02-13T14:47:48;11.80;99.90
61912;DHT22;49973;52.084;5.412;2023-02-13T14:50:22;11.80;99.90
61912;DHT22;49973;52.084;5.412;2023-02-13T14:52:53;11.70;99.90
61912;DHT22;49973;52.084;5.412;2023-02-13T14:55:31;11.70;99.90
61912;DHT22;49973;52.084;5.412;2023-02-13T14:58:05;11.70;99.90
61912;DHT22;49973;52.084;5.412;2023-02-13T15:00:40;11.70;99.90
61912;DHT22;49973;52.084;5.412;2023-02-13T15:03:22;11.70;99.90
61912;DHT22;49973;52.084;5.412;2023-02-13T15:05:53;11.70;99.90
61912;DHT22;49973;52.084;5.412;2023-02-13T15:08:25;11.70;99.90
61912;DHT22;49973;52.084;5.412;2023-02-13T15:10:56;11.70;99.90
61912;DHT22;49973;52.084;5.412;2023-02-13T15:13:30;11.70;99.90
61912;DHT22;49973;52.084;5.412;2023-02-13T15:16:01;11.70;99.90
61912;DHT22;49973;52.084;5.412;2023-02-13T15:18:35;11.70;99.90
61912;DHT22;49973;52.084;5.412;2023-02-13T15:21:12;11.70;99.90
61912;DHT22;49973;52.084;5.412;2023-02-13T15:23:43;11.70;99.90
61912;DHT22;49973;52.084;5.412;2023-02-13T15:26:19;11.70;99.90
61912;DHT22;49973;52.084;5.412;2023-02-13T15:28:58;11.60;99.90
61912;DHT22;49973;52.084;5.412;2023-02-13T15:31:30;11.60;99.90
61912;DHT22;49973;52.084;5.412;2023-02-13T15:34:01;11.60;99.90
61912;DHT22;49973;52.084;5.412;2023-02-13T15:36:35;11.60;99.90
61912;DHT22;49973;52.084;5.412;2023-02-13T15:39:14;11.60;99.90
61912;DHT22;49973;52.084;5.412;2023-02-13T15:41:46;11.50;99.90
61912;DHT22;49973;52.084;5.412;2023-02-13T15:44:18;11.50;99.90
61912;DHT22;49973;52.084;5.412;2023-02-13T15:46:48;11.50;99.90
61912;DHT22;49973;52.084;5.412;2023-02-13T15:49:21;11.50;99.90
61912;DHT22;49973;52.084;5.412;2023-02-13T15:52:01;11.40;99.90
61912;DHT22;49973;52.084;5.412;2023-02-13T15:54:31;11.40;99.90
61912;DHT22;49973;52.084;5.412;2023-02-13T15:57:04;11.40;99.90
61912;DHT22;49973;52.084;5.412;2023-02-13T15:59:35;11.30;99.90
61912;DHT22;49973;52.084;5.412;2023-02-13T16:02:09;11.30;99.90
61912;DHT22;49973;52.084;5.412;2023-02-13T16:04:40;11.20;99.90
61912;DHT22;49973;52.084;5.412;2023-02-13T16:07:10;11.20;99.90
61912;DHT22;49973;52.084;5.412;2023-02-13T16:09:40;11.10;99.90
61912;DHT22;49973;52.084;5.412;2023-02-13T16:12:18;11.10;99.90
61912;DHT22;49973;52.084;5.412;2023-02-13T16:14:50;11.00;99.90
61912;DHT22;49973;52.084;5.412;2023-02-13T16:17:26;10.80;99.90
61912;DHT22;49973;52.084;5.412;2023-02-13T16:20:00;10.90;99.90
61912;DHT22;49973;52.084;5.412;2023-02-13T16:22:33;10.90;99.90
61912;DHT22;49973;52.084;5.412;2023-02-13T16:25:12;10.90;99.90
61912;DHT22;49973;52.084;5.412;2023-02-13T16:27:44;10.80;99.90
61912;DHT22;49973;52.084;5.412;2023-02-13T16:30:30;10.70;99.90
61912;DHT22;49973;52.084;5.412;2023-02-13T16:33:26;10.60;99.90
61912;DHT22;49973;52.084;5.412;2023-02-13T16:35:58;10.60;99.90